page 5625 of 1009887 registered users

eBook PostsUsers

  1. 0powercent78 registered @ 2013-01-25 21:53:48, last login @ 2013-01-25 21:53:48
  2. 0mouth55barber registered @ 2013-01-25 21:54:24, last login @ 2013-01-25 21:54:24
  3. 0open3eggnog registered @ 2013-01-25 21:54:26, last login @ 2013-01-25 21:54:26
  4. 0beaver4quiet registered @ 2013-01-25 21:54:38, last login @ 2013-01-25 21:54:38
  5. 0tiger43level registered @ 2013-01-25 21:54:48, last login @ 2013-01-25 21:54:48
  6. 0help6orchid registered @ 2013-01-25 21:54:52, last login @ 2013-01-25 21:54:52
  7. 0errorpants09 registered @ 2013-01-25 21:56:12, last login @ 2013-01-25 21:56:12
  8. 0boy3map registered @ 2013-01-25 21:56:51, last login @ 2013-01-25 21:56:51
  9. 0pansy60honey registered @ 2013-01-25 21:57:30, last login @ 2013-01-25 21:57:30
  10. 0itruckcase63 registered @ 2013-01-25 21:58:11, last login @ 2013-01-25 21:58:11
  11. 0planet0timer registered @ 2013-01-25 21:59:37, last login @ 2013-01-25 21:59:37
  12. 0scalemaraca14 registered @ 2013-01-25 21:59:47, last login @ 2013-01-25 21:59:47
  13. 0maraca75middle registered @ 2013-01-25 22:00:07, last login @ 2013-01-25 22:00:07
  14. 0foodsuede26 registered @ 2013-01-25 22:00:31, last login @ 2013-01-25 22:00:31
  15. 0pajamaniece3 registered @ 2013-01-25 22:00:49, last login @ 2013-01-25 22:00:49
  16. 0genionet registered @ 2013-01-25 22:01:14, last login @ 2013-01-25 22:01:14
  17. 0operaguide61 registered @ 2013-01-25 22:02:00, last login @ 2013-01-25 22:02:00
  18. 0blow73cause registered @ 2013-01-25 22:02:06, last login @ 2013-01-25 22:02:06
  19. 0skirt0catsup registered @ 2013-01-25 22:02:10, last login @ 2013-01-25 22:57:48
  20. 0cymbal7sink registered @ 2013-01-25 22:02:32, last login @ 2013-01-25 22:02:32
  21. 0flypair51 registered @ 2013-01-25 22:02:46, last login @ 2013-01-25 22:33:56
  22. 0SebastianManjon registered @ 2013-01-25 22:04:05, last login @ 2013-01-25 22:04:05
  23. 0guilty1regret registered @ 2013-01-25 22:04:15, last login @ 2013-01-25 22:38:35
  24. 0flower53size registered @ 2013-01-25 22:04:38, last login @ 2013-01-25 22:37:35
  25. 0rodcherry71 registered @ 2013-01-25 22:04:40, last login @ 2013-01-25 22:04:40
  26. 0motherink8 registered @ 2013-01-25 22:05:16, last login @ 2013-01-25 22:05:16
  27. 0legfire9 registered @ 2013-01-25 22:08:44, last login @ 2013-01-25 22:08:44
  28. 0pet3owl registered @ 2013-01-25 22:10:52, last login @ 2013-01-25 22:10:52
  29. 0yam58red registered @ 2013-01-25 22:11:14, last login @ 2013-01-25 22:11:14
  30. 0jadeleesparrow14 registered @ 2013-01-25 22:11:52, last login @ 2013-01-25 22:11:52
  31. 0trialpajama51 registered @ 2013-01-25 22:12:56, last login @ 2013-01-25 22:49:31
  32. 0airclutch17 registered @ 2013-01-25 22:13:13, last login @ 2013-01-25 22:13:13
  33. 0alarmcannon86 registered @ 2013-01-25 22:14:20, last login @ 2013-01-25 22:14:20
  34. 0childdebt7 registered @ 2013-01-25 22:14:30, last login @ 2013-01-25 22:36:17
  35. 0degreearrow6 registered @ 2013-01-25 22:14:34, last login @ 2013-01-25 22:14:34
  36. 0streetbroker02 registered @ 2013-01-25 22:14:40, last login @ 2013-01-25 22:14:40
  37. 0francevest07 registered @ 2013-01-25 22:14:44, last login @ 2013-01-25 22:14:44
  38. 0buckethammer12 registered @ 2013-01-25 22:15:30, last login @ 2013-01-25 22:15:30
  39. 0piehyena55 registered @ 2013-01-25 22:16:35, last login @ 2013-01-25 22:16:35
  40. 0badge59niece registered @ 2013-01-25 22:17:03, last login @ 2013-01-25 22:17:03
  41. 0yamquiet65 registered @ 2013-01-25 22:18:45, last login @ 2013-01-25 22:18:45
  42. 0spleen23flax registered @ 2013-01-25 22:21:39, last login @ 2013-01-25 22:21:39
  43. 0callrandom2 registered @ 2013-01-25 22:22:06, last login @ 2013-01-25 22:22:06
  44. 0call45road registered @ 2013-01-25 22:22:45, last login @ 2013-01-25 22:22:45
  45. 0epoxyjute80 registered @ 2013-01-25 22:22:52, last login @ 2013-01-25 22:51:43
  46. 0work90hoe registered @ 2013-01-25 22:22:53, last login @ 2013-01-25 22:47:19
  47. 0knot87beat registered @ 2013-01-25 22:23:26, last login @ 2013-01-25 22:23:26
  48. 0eye3broker registered @ 2013-01-25 22:25:29, last login @ 2013-01-25 22:25:29
  49. 0hailiris6 registered @ 2013-01-25 22:25:32, last login @ 2013-01-25 22:25:32
  50. 0rotatetemple6 registered @ 2013-01-25 22:26:01, last login @ 2013-01-25 22:26:01
  51. 0dewoak75 registered @ 2013-01-25 22:26:16, last login @ 2013-01-25 22:53:55
  52. 0music87fired registered @ 2013-01-25 22:26:55, last login @ 2013-01-25 22:26:55
  53. 0window0office registered @ 2013-01-25 22:27:06, last login @ 2013-01-25 22:27:06
  54. 0court1frame registered @ 2013-01-25 22:27:07, last login @ 2013-01-25 22:27:07
  55. 0neckchance7 registered @ 2013-01-25 22:29:57, last login @ 2013-01-25 22:29:57
  56. 0touch4rotate registered @ 2013-01-25 22:30:17, last login @ 2013-01-25 22:30:17
  57. 0ghostden73 registered @ 2013-01-25 22:31:24, last login @ 2013-01-25 22:31:24
  58. 0pond32jar registered @ 2013-01-25 22:32:52, last login @ 2013-01-25 22:32:52
  59. 0bakerdrill62 registered @ 2013-01-25 22:33:11, last login @ 2013-01-25 23:00:51
  60. 0robert4farm registered @ 2013-01-25 22:33:22, last login @ 2013-01-25 22:33:22
  61. 0avenuetwig99 registered @ 2013-01-25 22:35:17, last login @ 2013-01-25 22:35:17
  62. 0menplay09 registered @ 2013-01-25 22:35:23, last login @ 2013-01-25 22:35:23
  63. 0robincornet8 registered @ 2013-01-25 22:36:03, last login @ 2013-01-25 22:36:03
  64. 0tail9pansy registered @ 2013-01-25 22:36:11, last login @ 2013-01-25 22:36:11
  65. 0bus68women registered @ 2013-01-25 22:36:30, last login @ 2013-01-25 22:36:30
  66. 0frencharea33 registered @ 2013-01-25 22:37:17, last login @ 2013-01-25 22:37:17
  67. 0hotdeal7 registered @ 2013-01-25 22:40:01, last login @ 2013-01-25 22:40:01
  68. 0cottonscrew1 registered @ 2013-01-25 22:41:25, last login @ 2013-01-25 22:41:25
  69. 0nepalpepper5 registered @ 2013-01-25 22:41:56, last login @ 2013-01-25 22:41:56
  70. 0stepoyster70 registered @ 2013-01-25 22:42:56, last login @ 2013-01-25 22:42:56
  71. 0brakeyogurt21 registered @ 2013-01-25 22:42:59, last login @ 2013-01-25 22:42:59
  72. 0supply94crime registered @ 2013-01-25 22:43:15, last login @ 2013-01-25 23:00:51
  73. 0bobcat6coach registered @ 2013-01-25 22:43:29, last login @ 2013-01-25 22:43:29
  74. 0order84conga registered @ 2013-01-25 22:43:43, last login @ 2013-01-25 22:43:43
  75. 0gallonfine09 registered @ 2013-01-25 22:44:01, last login @ 2013-01-25 22:44:01
  76. 0drill32beet registered @ 2013-01-25 22:44:58, last login @ 2013-01-25 22:44:58
  77. 0srsubhashini registered @ 2013-01-25 22:44:59, last login @ 2013-01-25 22:44:59
  78. 0pet95seat registered @ 2013-01-25 22:45:04, last login @ 2013-01-25 22:45:04
  79. 0byzinoccaby839 registered @ 2013-01-25 22:46:17, last login @ 2013-01-25 22:46:17
  80. 0key8start registered @ 2013-01-25 22:46:24, last login @ 2013-01-25 22:46:24
  81. 0glidermice1 registered @ 2013-01-25 22:47:14, last login @ 2013-01-25 22:47:14
  82. 0bulb5way registered @ 2013-01-25 22:47:58, last login @ 2013-01-25 22:47:58
  83. 0lynxdibble01 registered @ 2013-01-25 22:48:29, last login @ 2013-01-25 22:48:29
  84. 0wishwriter2 registered @ 2013-01-25 22:49:50, last login @ 2013-01-25 22:49:50
  85. 0packet0wolf registered @ 2013-01-25 22:51:24, last login @ 2013-01-25 22:51:24
  86. 0grape22hand registered @ 2013-01-25 22:51:32, last login @ 2013-01-25 22:51:32
  87. 0debtdock9 registered @ 2013-01-25 22:53:33, last login @ 2013-01-25 22:53:33
  88. 0chain0shock registered @ 2013-01-25 22:54:30, last login @ 2013-01-25 22:54:30
  89. 0butaneauthor12 registered @ 2013-01-25 22:54:32, last login @ 2013-01-25 22:54:32
  90. 0boatflax30 registered @ 2013-01-25 22:55:00, last login @ 2013-01-25 22:55:00
  91. 0hoepot4 registered @ 2013-01-25 22:57:37, last login @ 2013-01-25 22:57:37
  92. 0nut7edward registered @ 2013-01-25 22:59:31, last login @ 2013-01-25 22:59:31
  93. 0washer83pajama registered @ 2013-01-25 22:59:38, last login @ 2013-01-25 22:59:38
  94. 0plantliquor02 registered @ 2013-01-25 22:59:47, last login @ 2013-01-25 22:59:47
  95. 0coppergiant1 registered @ 2013-01-25 23:00:12, last login @ 2013-01-25 23:00:12
  96. 0sunday8road registered @ 2013-01-25 23:00:15, last login @ 2013-01-25 23:00:15
  97. 0roottaxi3 registered @ 2013-01-25 23:04:25, last login @ 2013-01-25 23:04:25
  98. 0garden67beret registered @ 2013-01-25 23:05:08, last login @ 2013-01-25 23:05:08
  99. 0secondbrandy06 registered @ 2013-01-25 23:05:38, last login @ 2013-01-25 23:49:17
  100. 0shenlicompany registered @ 2013-01-25 23:05:40, last login @ 2013-01-25 23:05:40
  101. 0loafidea4 registered @ 2013-01-25 23:05:58, last login @ 2013-01-25 23:05:58

More...

[5635] [5634] [5633] [5632] [5631] [5630] [5629] [5628] [5627] [5626] [5625] [5624] [5623] [5622] [5621] [5620] [5619] [5618] [5617] [5616] ...[1]
Back to Top